sensor_id;sensor_type;location;lat;lon;timestamp;pressure;altitude;pressure_sealevel;temperature;humidity
44297;BME280;51842;47.450;8.654;2023-06-22T00:02:18;95433.97;;;19.11;100.00
44297;BME280;51842;47.450;8.654;2023-06-22T00:04:44;95429.38;;;19.12;100.00
44297;BME280;51842;47.450;8.654;2023-06-22T00:07:10;95437.13;;;19.13;100.00
44297;BME280;51842;47.450;8.654;2023-06-22T00:09:36;95435.72;;;19.16;100.00
44297;BME280;51842;47.450;8.654;2023-06-22T00:12:02;95439.06;;;19.13;100.00
44297;BME280;51842;47.450;8.654;2023-06-22T00:14:28;95428.41;;;19.08;100.00
44297;BME280;51842;47.450;8.654;2023-06-22T00:16:54;95427.16;;;19.05;100.00
44297;BME280;51842;47.450;8.654;2023-06-22T00:19:21;95427.50;;;19.04;100.00
44297;BME280;51842;47.450;8.654;2023-06-22T00:21:48;95424.31;;;19.02;100.00
44297;BME280;51842;47.450;8.654;2023-06-22T00:24:19;95430.53;;;19.02;100.00
44297;BME280;51842;47.450;8.654;2023-06-22T00:26:45;95425.13;;;19.02;100.00
44297;BME280;51842;47.450;8.654;2023-06-22T00:29:11;95434.66;;;19.00;100.00
44297;BME280;51842;47.450;8.654;2023-06-22T00:31:36;95425.75;;;18.99;100.00
44297;BME280;51842;47.450;8.654;2023-06-22T00:34:02;95429.56;;;18.98;100.00
44297;BME280;51842;47.450;8.654;2023-06-22T00:36:28;95420.53;;;18.94;100.00
44297;BME280;51842;47.450;8.654;2023-06-22T00:38:54;95422.59;;;18.88;100.00
44297;BME280;51842;47.450;8.654;2023-06-22T00:41:20;95421.31;;;18.86;100.00
44297;BME280;51842;47.450;8.654;2023-06-22T00:43:45;95425.47;;;18.83;100.00
44297;BME280;51842;47.450;8.654;2023-06-22T00:46:12;95429.63;;;18.81;100.00
44297;BME280;51842;47.450;8.654;2023-06-22T00:48:38;95424.22;;;18.81;100.00
44297;BME280;51842;47.450;8.654;2023-06-22T00:51:10;95428.00;;;18.80;100.00
44297;BME280;51842;47.450;8.654;2023-06-22T00:53:36;95430.25;;;18.78;100.00
44297;BME280;51842;47.450;8.654;2023-06-22T00:56:04;95432.81;;;18.74;100.00
44297;BME280;51842;47.450;8.654;2023-06-22T00:58:31;95431.34;;;18.77;100.00
44297;BME280;51842;47.450;8.654;2023-06-22T01:00:57;95433.59;;;18.75;100.00
44297;BME280;51842;47.450;8.654;2023-06-22T01:03:23;95431.50;;;18.71;100.00
44297;BME280;51842;47.450;8.654;2023-06-22T01:05:50;95439.09;;;18.69;100.00
44297;BME280;51842;47.450;8.654;2023-06-22T01:09:00;95435.94;;;18.67;100.00
44297;BME280;51842;47.450;8.654;2023-06-22T01:11:37;95447.06;;;18.66;100.00
44297;BME280;51842;47.450;8.654;2023-06-22T01:14:15;95443.09;;;18.63;100.00
44297;BME280;51842;47.450;8.654;2023-06-22T01:16:47;95454.50;;;18.60;100.00
44297;BME280;51842;47.450;8.654;2023-06-22T01:19:51;95465.47;;;18.55;100.00
44297;BME280;51842;47.450;8.654;2023-06-22T01:22:26;95470.53;;;18.48;100.00
44297;BME280;51842;47.450;8.654;2023-06-22T01:25:13;95474.19;;;18.43;100.00
44297;BME280;51842;47.450;8.654;2023-06-22T01:28:24;95483.06;;;18.35;100.00
44297;BME280;51842;47.450;8.654;2023-06-22T01:30:53;95488.13;;;18.28;100.00
44297;BME280;51842;47.450;8.654;2023-06-22T01:33:35;95485.59;;;18.23;100.00
44297;BME280;51842;47.450;8.654;2023-06-22T01:36:04;95496.53;;;18.18;100.00
44297;BME280;51842;47.450;8.654;2023-06-22T01:38:31;95492.41;;;18.12;100.00
44297;BME280;51842;47.450;8.654;2023-06-22T01:40:58;95494.13;;;18.08;100.00
44297;BME280;51842;47.450;8.654;2023-06-22T01:43:27;95491.25;;;18.04;100.00
44297;BME280;51842;47.450;8.654;2023-06-22T01:45:55;95486.81;;;17.99;100.00
44297;BME280;51842;47.450;8.654;2023-06-22T01:48:23;95488.88;;;17.94;100.00
44297;BME280;51842;47.450;8.654;2023-06-22T01:50:49;95480.00;;;17.93;100.00
44297;BME280;51842;47.450;8.654;2023-06-22T01:53:15;95474.44;;;17.90;100.00
44297;BME280;51842;47.450;8.654;2023-06-22T01:55:40;95475.38;;;17.85;100.00
44297;BME280;51842;47.450;8.654;2023-06-22T01:58:06;95487.38;;;17.79;100.00
44297;BME280;51842;47.450;8.654;2023-06-22T02:00:38;95492.09;;;17.73;100.00
44297;BME280;51842;47.450;8.654;2023-06-22T02:03:13;95496.22;;;17.71;100.00
44297;BME280;51842;47.450;8.654;2023-06-22T02:05:51;95491.25;;;17.64;100.00
44297;BME280;51842;47.450;8.654;2023-06-22T02:08:40;95490.31;;;17.60;100.00
44297;BME280;51842;47.450;8.654;2023-06-22T02:11:09;95485.25;;;17.58;100.00
44297;BME280;51842;47.450;8.654;2023-06-22T02:13:37;95483.00;;;17.52;100.00
44297;BME280;51842;47.450;8.654;2023-06-22T02:16:12;95485.19;;;17.50;100.00
44297;BME280;51842;47.450;8.654;2023-06-22T02:18:38;95481.34;;;17.42;100.00
44297;BME280;51842;47.450;8.654;2023-06-22T02:21:06;95484.50;;;17.35;100.00
44297;BME280;51842;47.450;8.654;2023-06-22T02:23:32;95489.72;;;17.32;100.00
44297;BME280;51842;47.450;8.654;2023-06-22T02:26:02;95482.06;;;17.25;100.00
44297;BME280;51842;47.450;8.654;2023-06-22T02:28:28;95484.44;;;17.18;100.00
44297;BME280;51842;47.450;8.654;2023-06-22T02:30:54;95479.94;;;17.14;100.00
44297;BME280;51842;47.450;8.654;2023-06-22T02:33:20;95481.69;;;17.09;100.00
44297;BME280;51842;47.450;8.654;2023-06-22T02:35:46;95470.75;;;17.06;100.00
44297;BME280;51842;47.450;8.654;2023-06-22T02:38:15;95470.06;;;17.00;100.00
44297;BME280;51842;47.450;8.654;2023-06-22T02:40:40;95467.81;;;16.94;100.00
44297;BME280;51842;47.450;8.654;2023-06-22T02:43:06;95466.84;;;16.90;100.00
44297;BME280;51842;47.450;8.654;2023-06-22T02:45:32;95468.53;;;16.85;100.00
44297;BME280;51842;47.450;8.654;2023-06-22T02:47:58;95474.34;;;16.79;100.00
44297;BME280;51842;47.450;8.654;2023-06-22T02:50:24;95472.28;;;16.76;100.00
44297;BME280;51842;47.450;8.654;2023-06-22T02:52:50;95486.63;;;16.71;100.00
44297;BME280;51842;47.450;8.654;2023-06-22T02:55:16;95478.84;;;16.70;100.00
44297;BME280;51842;47.450;8.654;2023-06-22T02:57:42;95477.88;;;16.65;100.00
44297;BME280;51842;47.450;8.654;2023-06-22T03:00:10;95482.75;;;16.63;100.00
44297;BME280;51842;47.450;8.654;2023-06-22T03:02:44;95461.06;;;16.60;100.00
44297;BME280;51842;47.450;8.654;2023-06-22T03:05:10;95472.00;;;16.63;100.00
44297;BME280;51842;47.450;8.654;2023-06-22T03:07:40;95470.13;;;16.64;100.00
44297;BME280;51842;47.450;8.654;2023-06-22T03:10:11;95471.72;;;16.65;100.00
44297;BME280;51842;47.450;8.654;2023-06-22T03:12:38;95458.88;;;16.62;100.00
44297;BME280;51842;47.450;8.654;2023-06-22T03:15:10;95466.44;;;16.60;100.00
44297;BME280;51842;47.450;8.654;2023-06-22T03:17:38;95472.63;;;16.60;100.00
44297;BME280;51842;47.450;8.654;2023-06-22T03:20:06;95459.78;;;16.57;100.00
44297;BME280;51842;47.450;8.654;2023-06-22T03:22:42;95453.63;;;16.57;100.00
44297;BME280;51842;47.450;8.654;2023-06-22T03:25:09;95471.03;;;16.59;100.00
44297;BME280;51842;47.450;8.654;2023-06-22T03:27:42;95471.34;;;16.58;100.00
44297;BME280;51842;47.450;8.654;2023-06-22T03:30:10;95468.97;;;16.56;100.00
44297;BME280;51842;47.450;8.654;2023-06-22T03:32:36;95453.94;;;16.55;100.00
44297;BME280;51842;47.450;8.654;2023-06-22T03:35:02;95457.59;;;16.59;100.00
44297;BME280;51842;47.450;8.654;2023-06-22T03:37:28;95450.50;;;16.63;100.00
44297;BME280;51842;47.450;8.654;2023-06-22T03:39:55;95460.34;;;16.68;100.00
44297;BME280;51842;47.450;8.654;2023-06-22T03:42:21;95464.00;;;16.72;100.00
44297;BME280;51842;47.450;8.654;2023-06-22T03:44:47;95460.44;;;16.77;100.00
44297;BME280;51842;47.450;8.654;2023-06-22T03:47:13;95453.16;;;16.77;100.00
44297;BME280;51842;47.450;8.654;2023-06-22T03:49:39;95460.91;;;16.79;100.00
44297;BME280;51842;47.450;8.654;2023-06-22T03:52:05;95459.63;;;16.76;100.00
44297;BME280;51842;47.450;8.654;2023-06-22T03:54:31;95446.75;;;16.73;100.00
44297;BME280;51842;47.450;8.654;2023-06-22T03:56:58;95452.38;;;16.77;100.00
44297;BME280;51842;47.450;8.654;2023-06-22T03:59:24;95437.81;;;16.78;100.00
44297;BME280;51842;47.450;8.654;2023-06-22T04:01:50;95432.72;;;16.76;100.00
44297;BME280;51842;47.450;8.654;2023-06-22T04:04:18;95426.44;;;16.81;100.00
44297;BME280;51842;47.450;8.654;2023-06-22T04:06:44;95430.16;;;16.94;100.00
44297;BME280;51842;47.450;8.654;2023-06-22T04:09:10;95423.03;;;16.98;100.00
44297;BME280;51842;47.450;8.654;2023-06-22T04:11:35;95437.66;;;17.05;100.00
44297;BME280;51842;47.450;8.654;2023-06-22T04:14:01;95440.06;;;17.16;100.00
44297;BME280;51842;47.450;8.654;2023-06-22T04:16:27;95439.34;;;17.24;100.00
44297;BME280;51842;47.450;8.654;2023-06-22T04:18:53;95430.31;;;17.28;100.00
44297;BME280;51842;47.450;8.654;2023-06-22T04:21:19;95439.84;;;17.34;100.00
44297;BME280;51842;47.450;8.654;2023-06-22T04:23:46;95447.16;;;17.43;100.00
44297;BME280;51842;47.450;8.654;2023-06-22T04:26:12;95444.81;;;17.50;100.00
44297;BME280;51842;47.450;8.654;2023-06-22T04:28:40;95440.88;;;17.56;100.00
44297;BME280;51842;47.450;8.654;2023-06-22T04:31:06;95434.53;;;17.61;100.00
44297;BME280;51842;47.450;8.654;2023-06-22T04:33:32;95441.53;;;17.70;100.00
44297;BME280;51842;47.450;8.654;2023-06-22T04:35:59;95438.28;;;17.82;100.00
44297;BME280;51842;47.450;8.654;2023-06-22T04:38:27;95442.72;;;17.95;100.00
44297;BME280;51842;47.450;8.654;2023-06-22T04:40:53;95442.59;;;18.09;100.00
44297;BME280;51842;47.450;8.654;2023-06-22T04:43:19;95439.44;;;18.24;100.00
44297;BME280;51842;47.450;8.654;2023-06-22T04:45:45;95437.38;;;18.39;100.00
44297;BME280;51842;47.450;8.654;2023-06-22T04:48:11;95423.59;;;18.49;100.00
44297;BME280;51842;47.450;8.654;2023-06-22T04:50:42;95429.09;;;18.61;100.00
44297;BME280;51842;47.450;8.654;2023-06-22T04:53:07;95434.06;;;18.68;100.00
44297;BME280;51842;47.450;8.654;2023-06-22T04:55:35;95428.16;;;18.83;100.00
44297;BME280;51842;47.450;8.654;2023-06-22T04:58:03;95424.31;;;19.02;100.00
44297;BME280;51842;47.450;8.654;2023-06-22T05:00:31;95424.91;;;19.16;100.00
44297;BME280;51842;47.450;8.654;2023-06-22T05:02:57;95424.03;;;19.33;100.00
44297;BME280;51842;47.450;8.654;2023-06-22T05:05:26;95427.00;;;19.49;100.00
44297;BME280;51842;47.450;8.654;2023-06-22T05:07:52;95429.19;;;19.64;100.00
44297;BME280;51842;47.450;8.654;2023-06-22T05:10:25;95430.06;;;19.77;100.00
44297;BME280;51842;47.450;8.654;2023-06-22T05:12:51;95426.78;;;19.92;100.00
44297;BME280;51842;47.450;8.654;2023-06-22T05:15:17;95415.53;;;20.11;100.00
44297;BME280;51842;47.450;8.654;2023-06-22T05:17:45;95411.00;;;20.24;100.00
44297;BME280;51842;47.450;8.654;2023-06-22T05:20:12;95428.06;;;20.37;100.00
44297;BME280;51842;47.450;8.654;2023-06-22T05:22:39;95420.63;;;20.54;100.00
44297;BME280;51842;47.450;8.654;2023-06-22T05:25:11;95414.38;;;20.63;100.00
44297;BME280;51842;47.450;8.654;2023-06-22T05:27:37;95410.22;;;20.77;100.00
44297;BME280;51842;47.450;8.654;2023-06-22T05:30:08;95398.44;;;20.94;99.81
44297;BME280;51842;47.450;8.654;2023-06-22T05:32:34;95405.47;;;21.08;98.23
44297;BME280;51842;47.450;8.654;2023-06-22T05:35:00;95418.81;;;21.25;96.89
44297;BME280;51842;47.450;8.654;2023-06-22T05:37:28;95408.94;;;21.41;96.06
44297;BME280;51842;47.450;8.654;2023-06-22T05:39:53;95410.41;;;21.51;94.77
44297;BME280;51842;47.450;8.654;2023-06-22T05:42:21;95416.59;;;21.64;93.85
44297;BME280;51842;47.450;8.654;2023-06-22T05:44:47;95424.53;;;21.81;92.77
44297;BME280;51842;47.450;8.654;2023-06-22T05:47:13;95420.88;;;21.89;92.09
44297;BME280;51842;47.450;8.654;2023-06-22T05:49:39;95428.44;;;21.96;90.70
44297;BME280;51842;47.450;8.654;2023-06-22T05:52:05;95434.31;;;21.98;90.32
44297;BME280;51842;47.450;8.654;2023-06-22T05:54:31;95431.91;;;22.09;88.79
44297;BME280;51842;47.450;8.654;2023-06-22T05:56:57;95419.84;;;22.18;88.70
44297;BME280;51842;47.450;8.654;2023-06-22T05:59:23;95429.09;;;22.30;86.99
44297;BME280;51842;47.450;8.654;2023-06-22T06:01:49;95414.94;;;22.36;87.03
44297;BME280;51842;47.450;8.654;2023-06-22T06:04:17;95421.38;;;22.44;87.06
44297;BME280;51842;47.450;8.654;2023-06-22T06:06:44;95417.56;;;22.61;85.96
44297;BME280;51842;47.450;8.654;2023-06-22T06:09:10;95419.63;;;22.80;84.96
44297;BME280;51842;47.450;8.654;2023-06-22T06:11:37;95417.88;;;23.00;83.59
44297;BME280;51842;47.450;8.654;2023-06-22T06:14:03;95430.06;;;23.22;82.82
44297;BME280;51842;47.450;8.654;2023-06-22T06:16:29;95428.75;;;23.31;80.41
44297;BME280;51842;47.450;8.654;2023-06-22T06:18:55;95424.75;;;23.41;80.39
44297;BME280;51842;47.450;8.654;2023-06-22T06:21:22;95421.41;;;23.64;79.60
44297;BME280;51842;47.450;8.654;2023-06-22T06:23:48;95429.22;;;23.65;78.44
44297;BME280;51842;47.450;8.654;2023-06-22T06:26:13;95433.00;;;23.76;79.81
44297;BME280;51842;47.450;8.654;2023-06-22T06:28:42;95432.81;;;24.01;78.32
44297;BME280;51842;47.450;8.654;2023-06-22T06:31:09;95435.94;;;24.03;78.13
44297;BME280;51842;47.450;8.654;2023-06-22T06:33:36;95436.66;;;24.00;77.16
44297;BME280;51842;47.450;8.654;2023-06-22T06:36:02;95442.50;;;24.18;77.07
44297;BME280;51842;47.450;8.654;2023-06-22T06:38:30;95446.56;;;24.43;76.44
44297;BME280;51842;47.450;8.654;2023-06-22T06:40:56;95444.28;;;24.45;75.42
44297;BME280;51842;47.450;8.654;2023-06-22T06:43:22;95461.56;;;24.53;75.04
44297;BME280;51842;47.450;8.654;2023-06-22T06:45:49;95456.41;;;24.48;74.74
44297;BME280;51842;47.450;8.654;2023-06-22T06:48:15;95457.63;;;24.70;74.06
44297;BME280;51842;47.450;8.654;2023-06-22T06:50:40;95464.44;;;24.80;73.03
44297;BME280;51842;47.450;8.654;2023-06-22T06:53:06;95460.84;;;24.95;72.10
44297;BME280;51842;47.450;8.654;2023-06-22T06:55:32;95455.75;;;25.13;72.90
44297;BME280;51842;47.450;8.654;2023-06-22T06:58:01;95453.81;;;25.33;71.97
44297;BME280;51842;47.450;8.654;2023-06-22T07:00:28;95452.09;;;25.48;71.15
44297;BME280;51842;47.450;8.654;2023-06-22T07:02:54;95437.88;;;25.81;69.32
44297;BME280;51842;47.450;8.654;2023-06-22T07:05:20;95445.03;;;25.89;68.46
44297;BME280;51842;47.450;8.654;2023-06-22T07:07:45;95443.75;;;26.10;68.07
44297;BME280;51842;47.450;8.654;2023-06-22T07:10:11;95442.81;;;26.25;66.46
44297;BME280;51842;47.450;8.654;2023-06-22T07:12:37;95443.59;;;26.52;65.65
44297;BME280;51842;47.450;8.654;2023-06-22T07:15:05;95448.22;;;26.78;64.26
44297;BME280;51842;47.450;8.654;2023-06-22T07:17:33;95461.69;;;26.37;66.24
44297;BME280;51842;47.450;8.654;2023-06-22T07:20:01;95472.91;;;26.55;65.82
44297;BME280;51842;47.450;8.654;2023-06-22T07:22:27;95481.97;;;26.63;64.53
44297;BME280;51842;47.450;8.654;2023-06-22T07:24:52;95502.06;;;26.77;64.61
44297;BME280;51842;47.450;8.654;2023-06-22T07:27:18;95524.16;;;26.95;64.57
44297;BME280;51842;47.450;8.654;2023-06-22T07:29:46;95547.47;;;26.86;63.86
44297;BME280;51842;47.450;8.654;2023-06-22T07:32:11;95568.06;;;26.30;67.32
44297;BME280;51842;47.450;8.654;2023-06-22T07:34:37;95588.28;;;26.02;68.69
44297;BME280;51842;47.450;8.654;2023-06-22T07:37:04;95615.44;;;25.76;69.52
44297;BME280;51842;47.450;8.654;2023-06-22T07:39:30;95610.81;;;25.37;70.65
44297;BME280;51842;47.450;8.654;2023-06-22T07:41:56;95592.44;;;25.15;70.79
44297;BME280;51842;47.450;8.654;2023-06-22T07:44:21;95635.16;;;24.91;72.41
44297;BME280;51842;47.450;8.654;2023-06-22T07:46:47;95650.28;;;24.26;75.05
44297;BME280;51842;47.450;8.654;2023-06-22T07:49:13;95603.81;;;24.18;74.80
44297;BME280;51842;47.450;8.654;2023-06-22T07:51:39;95614.38;;;24.20;74.85
44297;BME280;51842;47.450;8.654;2023-06-22T07:54:04;95605.50;;;24.07;75.92
44297;BME280;51842;47.450;8.654;2023-06-22T07:56:30;95595.31;;;24.36;75.60
44297;BME280;51842;47.450;8.654;2023-06-22T07:58:56;95603.56;;;24.39;74.37
44297;BME280;51842;47.450;8.654;2023-06-22T08:01:24;95598.31;;;24.82;73.53
44297;BME280;51842;47.450;8.654;2023-06-22T08:03:50;95576.41;;;25.29;70.87
44297;BME280;51842;47.450;8.654;2023-06-22T08:06:16;95592.63;;;25.84;68.63
44297;BME280;51842;47.450;8.654;2023-06-22T08:08:42;95617.91;;;26.23;66.60
44297;BME280;51842;47.450;8.654;2023-06-22T08:11:09;95598.38;;;26.48;65.65
44297;BME280;51842;47.450;8.654;2023-06-22T08:13:35;95590.09;;;26.94;62.56
44297;BME280;51842;47.450;8.654;2023-06-22T08:16:01;95590.88;;;27.21;62.08
44297;BME280;51842;47.450;8.654;2023-06-22T08:18:28;95595.97;;;27.56;60.77
44297;BME280;51842;47.450;8.654;2023-06-22T08:20:54;95601.53;;;27.97;58.97
44297;BME280;51842;47.450;8.654;2023-06-22T08:23:20;95593.56;;;28.26;56.49
44297;BME280;51842;47.450;8.654;2023-06-22T08:25:46;95584.31;;;28.41;55.89
44297;BME280;51842;47.450;8.654;2023-06-22T08:28:13;95560.19;;;27.72;57.76
44297;BME280;51842;47.450;8.654;2023-06-22T08:30:39;95554.25;;;28.04;60.34
44297;BME280;51842;47.450;8.654;2023-06-22T08:33:05;95544.91;;;28.56;58.77
44297;BME280;51842;47.450;8.654;2023-06-22T08:35:30;95554.63;;;29.13;55.77
44297;BME280;51842;47.450;8.654;2023-06-22T08:37:56;95556.03;;;29.65;53.62
44297;BME280;51842;47.450;8.654;2023-06-22T08:40:24;95568.25;;;30.14;53.69
44297;BME280;51842;47.450;8.654;2023-06-22T08:42:50;95576.91;;;30.24;51.61
44297;BME280;51842;47.450;8.654;2023-06-22T08:45:16;95564.75;;;30.50;50.48
44297;BME280;51842;47.450;8.654;2023-06-22T08:47:42;95568.28;;;30.39;50.12
44297;BME280;51842;47.450;8.654;2023-06-22T08:50:10;95563.59;;;30.40;50.20
44297;BME280;51842;47.450;8.654;2023-06-22T08:52:36;95564.31;;;30.58;50.58
44297;BME280;51842;47.450;8.654;2023-06-22T08:55:04;95558.81;;;30.69;50.97
44297;BME280;51842;47.450;8.654;2023-06-22T08:57:30;95561.91;;;31.03;49.88
44297;BME280;51842;47.450;8.654;2023-06-22T08:59:58;95565.34;;;31.29;48.82
44297;BME280;51842;47.450;8.654;2023-06-22T09:02:27;95550.84;;;31.25;47.32
44297;BME280;51842;47.450;8.654;2023-06-22T09:04:57;95548.56;;;31.02;48.52
44297;BME280;51842;47.450;8.654;2023-06-22T09:07:23;95547.28;;;31.24;47.70
44297;BME280;51842;47.450;8.654;2023-06-22T09:09:50;95541.06;;;31.13;47.34
44297;BME280;51842;47.450;8.654;2023-06-22T09:12:17;95541.44;;;31.15;47.50
44297;BME280;51842;47.450;8.654;2023-06-22T09:14:45;95539.09;;;31.10;47.45
44297;BME280;51842;47.450;8.654;2023-06-22T09:17:13;95539.59;;;30.58;49.63
44297;BME280;51842;47.450;8.654;2023-06-22T09:19:38;95539.94;;;30.71;50.70
44297;BME280;51842;47.450;8.654;2023-06-22T09:22:05;95526.53;;;31.05;49.54
44297;BME280;51842;47.450;8.654;2023-06-22T09:24:32;95524.00;;;31.54;48.28
44297;BME280;51842;47.450;8.654;2023-06-22T09:26:58;95525.09;;;31.67;48.78
44297;BME280;51842;47.450;8.654;2023-06-22T09:29:24;95515.09;;;31.95;47.97
44297;BME280;51842;47.450;8.654;2023-06-22T09:31:50;95510.38;;;31.95;46.56
44297;BME280;51842;47.450;8.654;2023-06-22T09:34:16;95512.28;;;32.02;46.23
44297;BME280;51842;47.450;8.654;2023-06-22T09:36:48;95506.13;;;32.32;46.15
44297;BME280;51842;47.450;8.654;2023-06-22T09:39:14;95507.75;;;32.71;45.71
44297;BME280;51842;47.450;8.654;2023-06-22T09:41:40;95503.53;;;33.28;44.61
44297;BME280;51842;47.450;8.654;2023-06-22T09:44:06;95496.13;;;33.82;44.68
44297;BME280;51842;47.450;8.654;2023-06-22T09:46:32;95501.00;;;33.40;44.41
44297;BME280;51842;47.450;8.654;2023-06-22T09:48:57;95495.28;;;33.85;43.32
44297;BME280;51842;47.450;8.654;2023-06-22T09:51:23;95493.56;;;34.19;41.51
44297;BME280;51842;47.450;8.654;2023-06-22T09:53:50;95487.56;;;34.47;40.27
44297;BME280;51842;47.450;8.654;2023-06-22T09:56:17;95492.03;;;34.18;40.64
44297;BME280;51842;47.450;8.654;2023-06-22T09:58:43;95476.06;;;33.51;40.52
44297;BME280;51842;47.450;8.654;2023-06-22T10:01:09;95473.19;;;33.58;40.92
44297;BME280;51842;47.450;8.654;2023-06-22T10:03:36;95470.94;;;33.77;40.83
44297;BME280;51842;47.450;8.654;2023-06-22T10:06:03;95442.78;;;33.31;40.73
44297;BME280;51842;47.450;8.654;2023-06-22T10:08:29;95441.03;;;33.72;40.33
44297;BME280;51842;47.450;8.654;2023-06-22T10:10:55;95449.94;;;33.83;39.54
44297;BME280;51842;47.450;8.654;2023-06-22T10:13:20;95453.34;;;33.91;39.81
44297;BME280;51842;47.450;8.654;2023-06-22T10:15:46;95453.56;;;34.03;40.49
44297;BME280;51842;47.450;8.654;2023-06-22T10:18:17;95450.25;;;33.89;37.53
44297;BME280;51842;47.450;8.654;2023-06-22T10:20:44;95439.25;;;33.85;39.81
44297;BME280;51842;47.450;8.654;2023-06-22T10:23:09;95435.75;;;33.81;38.29
44297;BME280;51842;47.450;8.654;2023-06-22T10:25:35;95433.59;;;33.69;38.61
44297;BME280;51842;47.450;8.654;2023-06-22T10:28:01;95428.41;;;33.44;39.55
44297;BME280;51842;47.450;8.654;2023-06-22T10:30:27;95430.34;;;33.50;41.50
44297;BME280;51842;47.450;8.654;2023-06-22T10:32:54;95430.09;;;33.65;42.18
44297;BME280;51842;47.450;8.654;2023-06-22T10:35:20;95435.22;;;33.66;42.62
44297;BME280;51842;47.450;8.654;2023-06-22T10:37:48;95439.09;;;33.69;43.09
44297;BME280;51842;47.450;8.654;2023-06-22T10:40:16;95428.03;;;33.72;38.80
44297;BME280;51842;47.450;8.654;2023-06-22T10:42:43;95427.78;;;33.63;43.34
44297;BME280;51842;47.450;8.654;2023-06-22T10:45:09;95422.97;;;33.67;38.72
44297;BME280;51842;47.450;8.654;2023-06-22T10:47:35;95426.28;;;33.82;43.37
44297;BME280;51842;47.450;8.654;2023-06-22T10:50:02;95427.19;;;33.75;37.78
44297;BME280;51842;47.450;8.654;2023-06-22T10:52:28;95421.25;;;33.77;38.89
44297;BME280;51842;47.450;8.654;2023-06-22T10:54:54;95427.19;;;33.75;38.92
44297;BME280;51842;47.450;8.654;2023-06-22T10:57:21;95426.41;;;33.98;38.85
44297;BME280;51842;47.450;8.654;2023-06-22T10:59:47;95431.22;;;34.18;37.41
44297;BME280;51842;47.450;8.654;2023-06-22T11:02:13;95441.84;;;34.43;37.99
44297;BME280;51842;47.450;8.654;2023-06-22T11:04:38;95438.94;;;34.50;36.63
44297;BME280;51842;47.450;8.654;2023-06-22T11:07:04;95442.88;;;34.72;36.28
44297;BME280;51842;47.450;8.654;2023-06-22T11:09:30;95442.88;;;34.92;36.56
44297;BME280;51842;47.450;8.654;2023-06-22T11:11:57;95452.56;;;35.00;35.45
44297;BME280;51842;47.450;8.654;2023-06-22T11:14:25;95450.31;;;34.95;36.08
44297;BME280;51842;47.450;8.654;2023-06-22T11:16:51;95458.69;;;34.92;37.56
44297;BME280;51842;47.450;8.654;2023-06-22T11:19:18;95459.25;;;34.83;37.32
44297;BME280;51842;47.450;8.654;2023-06-22T11:21:44;95465.78;;;34.73;38.37
44297;BME280;51842;47.450;8.654;2023-06-22T11:24:10;95462.69;;;34.47;37.61
44297;BME280;51842;47.450;8.654;2023-06-22T11:26:36;95462.56;;;34.31;38.11
44297;BME280;51842;47.450;8.654;2023-06-22T11:29:02;95469.38;;;34.26;37.88
44297;BME280;51842;47.450;8.654;2023-06-22T11:31:32;95464.69;;;34.23;37.75
44297;BME280;51842;47.450;8.654;2023-06-22T11:33:58;95461.22;;;34.19;37.36
44297;BME280;51842;47.450;8.654;2023-06-22T11:36:25;95460.91;;;34.14;38.64
44297;BME280;51842;47.450;8.654;2023-06-22T11:38:51;95463.38;;;34.08;38.11
44297;BME280;51842;47.450;8.654;2023-06-22T11:41:17;95469.41;;;33.99;39.41
44297;BME280;51842;47.450;8.654;2023-06-22T11:43:44;95458.81;;;33.71;38.88
44297;BME280;51842;47.450;8.654;2023-06-22T11:46:10;95464.91;;;33.58;40.29
44297;BME280;51842;47.450;8.654;2023-06-22T11:48:36;95468.09;;;33.26;40.67
44297;BME280;51842;47.450;8.654;2023-06-22T11:51:02;95470.44;;;33.28;40.76
44297;BME280;51842;47.450;8.654;2023-06-22T11:53:29;95472.97;;;33.15;41.58
44297;BME280;51842;47.450;8.654;2023-06-22T11:55:56;95472.19;;;33.14;41.24
44297;BME280;51842;47.450;8.654;2023-06-22T11:58:22;95476.38;;;33.26;40.26
44297;BME280;51842;47.450;8.654;2023-06-22T12:00:48;95479.19;;;33.23;38.81
44297;BME280;51842;47.450;8.654;2023-06-22T12:03:14;95474.84;;;33.22;38.93
44297;BME280;51842;47.450;8.654;2023-06-22T12:05:41;95469.25;;;32.98;39.26
44297;BME280;51842;47.450;8.654;2023-06-22T12:08:06;95477.91;;;32.97;39.11
44297;BME280;51842;47.450;8.654;2023-06-22T12:10:32;95477.81;;;33.07;39.41
44297;BME280;51842;47.450;8.654;2023-06-22T12:12:58;95482.44;;;33.14;39.73
44297;BME280;51842;47.450;8.654;2023-06-22T12:15:26;95469.16;;;33.36;40.21
44297;BME280;51842;47.450;8.654;2023-06-22T12:17:52;95473.88;;;33.66;39.89
44297;BME280;51842;47.450;8.654;2023-06-22T12:20:17;95468.59;;;34.02;39.19
44297;BME280;51842;47.450;8.654;2023-06-22T12:22:44;95470.38;;;34.13;38.34
44297;BME280;51842;47.450;8.654;2023-06-22T12:25:11;95468.44;;;34.13;37.66
44297;BME280;51842;47.450;8.654;2023-06-22T12:27:37;95453.41;;;34.14;38.25
44297;BME280;51842;47.450;8.654;2023-06-22T12:30:04;95451.47;;;34.11;38.44
44297;BME280;51842;47.450;8.654;2023-06-22T12:32:30;95448.47;;;34.25;37.32
44297;BME280;51842;47.450;8.654;2023-06-22T12:34:56;95443.13;;;34.38;38.46
44297;BME280;51842;47.450;8.654;2023-06-22T12:37:23;95441.22;;;34.31;37.44
44297;BME280;51842;47.450;8.654;2023-06-22T12:39:49;95457.19;;;34.44;38.12
44297;BME280;51842;47.450;8.654;2023-06-22T12:42:16;95453.13;;;34.52;37.59
44297;BME280;51842;47.450;8.654;2023-06-22T12:44:42;95459.91;;;34.71;37.52
44297;BME280;51842;47.450;8.654;2023-06-22T12:47:09;95465.09;;;34.89;38.60
44297;BME280;51842;47.450;8.654;2023-06-22T12:49:38;95471.00;;;35.11;38.12
44297;BME280;51842;47.450;8.654;2023-06-22T12:52:08;95474.53;;;34.91;37.80
44297;BME280;51842;47.450;8.654;2023-06-22T12:54:35;95465.22;;;35.02;37.82
44297;BME280;51842;47.450;8.654;2023-06-22T12:57:01;95469.69;;;34.95;37.32